FOLSOM LAKE (FOL)

Elevation: 466' · AMERICAN R basin · Operator: US Bureau of Reclamation

Provisional data, subject to change.
Query executed Saturday at 0:23:21   clock

Select a sensor type for a plot of data.
Note: Reservoir Flows are daily averages.

Earlier

Date RES ELE    STORAGE    RES CHG    TOC STO    ABV TOC    OUTFLOW    INFLOW    EVAP    FNF    RIV REL    PPT INC    SPILL    DC PUMP    DIS PWR   
 FEET   AF   AF   AF   AF   CFS   CFS   CFS   CFS   CFS   INCHES   CFS   CFS   CFS  
06/03/2016 451.56 821591 -1240 977000 -155409 4338 3836 123 4053 0 0.00 0 181 4157
06/04/2016 451.43 820248 -1343 977000 -156752 4374 3789 92 4448 0 0.00 0 186 4188
06/05/2016 451.34 819318 -930 977000 -157682 4058 3702 113 3693 0 0.00 0 187 3871
06/06/2016 451.17 817561 -1757 977000 -159439 4677 3921 130 4050 0 0.00 0 186 4491
06/07/2016 450.90 814778 -2783 977000 -162222 4330 3036 109 3487 0 0.00 0 179 4151
06/08/2016 450.52 810875 -3903 977000 -166125 4448 2589 109 2853 0 0.00 0 180 4268
06/09/2016 450.36 809232 -1643 977000 -167768 4206 3487 109 3093 0 0.00 0 174 4032
06/10/2016 450.26 808205 -1027 977000 -168795 4442 4033 109 2975 0 0.00 0 178 4264
06/11/2016 450.09 806459 -1746 977000 -170541 4503 3721 98 2525 0 0.00 0 180 4323
06/12/2016 449.79 803392 -3067 977000 -173608 4189 2741 98 3064 0 0.00 0 187 4002
06/13/2016 449.29 798288 -5104 977000 -178712 4522 2030 81 2035 0 0.00 0 176 4346
06/14/2016 448.87 794010 -4278 977000 -182990 4305 2212 64 1635 0 0.00 0 168 4137
06/15/2016 448.47 789953 -4057 977000 -187047 4566 2605 84 1687 0 0.00 0 183 4383
06/16/2016 448.08 785997 -3956 977000 -191003 4262 2342 74 1492 e 0 0.00 0 175 4087
06/17/2016 447.58 780954 -5043 977000 -196046 4524 2059 77 1492 e 0 0.00 0 182 4342
06/18/2016 447.06 775714 -5240 977000 -201286 4444 1902 100 1559 0 0.00 0 109 4335
06/19/2016 446.58 770904 -4810 977000 -206096 4352 2030 103 1599 0 0.00 0 199 4153
06/20/2016 446.08 765899 -5005 977000 -211101 4263 1853 113 1486 e 0 0.00 0 195 4068
06/21/2016 445.60 761120 -4779 977000 -215880 4416 2136 129 1486 e 0 0.00 0 195 4221
06/22/2016 445.14 756545 -4575 977000 -220455 4320 2148 135 1424 0 0.00 0 202 4118
06/23/2016 444.60 751200 -5345 977000 -225800 4265 1698 128 1406 0 0.00 0 193 4072
06/24/2016 443.93 744583 -6617 977000 -232417 4640 1419 115 947 0 0.00 0 188 4452
06/25/2016 443.43 739673 -4910 977000 -237327 4314 1960 121 619 0 0.00 0 199 4115
06/26/2016 442.97 735157 -4516 977000 -241843 4480 2340 137 952 0 0.00 0 212 4268
06/27/2016 442.55 731059 -4098 977000 -- 4359 2426 133 1206 0 0.00 0 204 4155
06/28/2016 442.14 727058 -4001 977000 -249942 4135 2251 133 1193 0 0.00 0 192 3943
06/29/2016 441.54 721231 -5827 977000 -255769 4501 1689 126 1062 0 0.00 0 190 4311
06/30/2016 440.92 715224 -6007 977000 -- 4543 1621 106 -- 0 0.00 0 201 4342
07/01/2016 -- -- -- -- -- -- -- -- -- -- -- -- -- --
07/02/2016 -- -- -- -- -- -- -- -- -- -- -- -- -- --

Later | Latest

Warning! This data is preliminary and subject to revision.

Show FOL Map | Plot FOL Data | 1 Month FOL Data | Real-Time FOL Data | FOL Info